Time;durP1;ratioP1;P1;durP2;ratioP2;P2;SDS_P1;SDS_P2;PMS_P1;PMS_P2;Temp;Humidity;BMP_temperature;BMP_pressure;BME280_temperature;BME280_humidity;BME280_pressure;Samples;Min_cycle;Max_cycle;Signal;HPM_P1;HPM_P2
2023/03/24 00:01:56;;;;;;;5.13;3.20;;;;;;;11.48;100.00;99753.97;5218113;28;20026;-74
2023/03/24 00:04:28;;;;;;;5.63;2.67;;;;;;;11.27;100.00;99715.44;5228029;28;20393;-74
2023/03/24 00:07:03;;;;;;;5.07;2.50;;;;;;;11.30;100.00;99720.41;5233988;28;20029;-74
2023/03/24 00:09:35;;;;;;;4.60;2.70;;;;;;;11.61;100.00;99754.63;5231941;28;20123;-74
2023/03/24 00:12:12;;;;;;;6.97;2.47;;;;;;;11.54;100.00;99750.00;5232294;28;20150;-74
2023/03/24 00:14:47;;;;;;;5.27;2.70;;;;;;;11.56;100.00;99745.47;5233304;28;20022;-74
2023/03/24 00:17:18;;;;;;;;;;;;;;;11.75;100.00;99760.50;5234184;28;20051;-73
2023/03/24 00:19:51;;;;;;;4.40;2.27;;;;;;;11.53;100.00;99736.06;5233955;28;19956;-74
2023/03/24 00:22:22;;;;;;;4.70;2.10;;;;;;;11.64;100.00;99742.22;5233398;28;20091;-74
2023/03/24 00:24:53;;;;;;;5.33;2.80;;;;;;;11.56;100.00;99730.56;5233721;28;20064;-74
2023/03/24 00:27:29;;;;;;;4.33;2.43;;;;;;;11.57;100.00;99739.28;5232655;28;20033;-74
2023/03/24 00:30:02;;;;;;;3.50;2.00;;;;;;;11.73;100.00;99757.19;5233717;28;20025;-74
2023/03/24 00:32:37;;;;;;;5.07;2.77;;;;;;;11.65;100.00;99741.25;5231832;28;20021;-74
2023/03/24 00:35:11;;;;;;;4.87;2.73;;;;;;;11.70;100.00;99753.03;5233725;28;20057;-74
2023/03/24 00:37:43;;;;;;;3.60;2.35;;;;;;;11.84;100.00;99738.78;5229484;28;20021;-73
2023/03/24 00:40:17;;;;;;;4.03;2.10;;;;;;;11.80;100.00;99736.56;5233050;28;20029;-74
2023/03/24 00:42:49;;;;;;;4.13;1.98;;;;;;;11.79;100.00;99724.38;5233175;28;20035;-74
2023/03/24 00:45:24;;;;;;;5.10;2.27;;;;;;;11.79;100.00;99725.22;5233364;28;20359;-74
2023/03/24 00:47:56;;;;;;;4.77;2.30;;;;;;;11.82;100.00;99727.56;5231427;28;20184;-74
2023/03/24 00:50:32;;;;;;;6.80;2.27;;;;;;;11.84;100.00;99732.69;5233620;28;20064;-74
2023/03/24 00:53:03;;;;;;;4.33;2.10;;;;;;;11.96;100.00;99717.72;5219940;28;20037;-74
2023/03/24 00:55:36;;;;;;;3.47;2.00;;;;;;;11.87;100.00;99711.44;5211934;28;20447;-73
2023/03/24 00:58:08;;;;;;;3.93;2.00;;;;;;;11.95;100.00;99705.56;5213362;28;20073;-74
2023/03/24 01:00:40;;;;;;;6.00;2.33;;;;;;;11.97;100.00;99706.28;5224959;28;20026;-74
2023/03/24 01:03:13;;;;;;;6.77;2.60;;;;;;;11.73;100.00;99671.47;5233426;28;20113;-74
2023/03/24 01:05:47;;;;;;;4.13;1.93;;;;;;;11.91;100.00;99696.28;5233208;28;20104;-75
2023/03/24 01:08:19;;;;;;;2.65;1.83;;;;;;;11.96;100.00;99689.69;5232682;28;20037;-74
2023/03/24 01:10:54;;;;;;;6.33;2.17;;;;;;;11.91;100.00;99696.28;5212269;28;20377;-75
2023/03/24 01:13:27;;;;;;;5.33;2.13;;;;;;;11.92;100.00;99705.84;5221396;28;20076;-74
2023/03/24 01:15:58;;;;;;;3.57;2.07;;;;;;;11.97;100.00;99693.97;5233215;28;20068;-74
2023/03/24 01:18:30;;;;;;;4.80;2.00;;;;;;;11.67;100.00;99648.38;5232653;28;20075;-74
2023/03/24 01:21:01;;;;;;;5.03;2.53;;;;;;;11.68;100.00;99649.19;5233326;28;20030;-73
2023/03/24 01:23:33;;;;;;;3.77;1.73;;;;;;;11.91;100.00;99673.50;5234293;28;20067;-73
2023/03/24 01:26:06;;;;;;;3.93;1.83;;;;;;;11.92;100.00;99683.03;5235511;28;20397;-74
2023/03/24 01:28:39;;;;;;;3.50;1.97;;;;;;;11.73;100.00;99652.25;5237055;28;20033;-74
2023/03/24 01:31:12;;;;;;;4.68;1.70;;;;;;;11.79;100.00;99672.75;5237039;28;20072;-73
2023/03/24 01:33:43;;;;;;;3.43;1.93;;;;;;;11.83;100.00;99676.75;5237264;28;20095;-74
2023/03/24 01:36:15;;;;;;;4.23;2.10;;;;;;;11.65;100.00;99657.34;5236491;28;20402;-74
2023/03/24 01:38:47;;;;;;;3.50;1.90;;;;;;;11.75;100.00;99673.97;5236688;28;20084;-74
2023/03/24 01:41:18;;;;;;;3.73;2.60;;;;;;;11.72;100.00;99658.47;5216864;28;20113;-73
2023/03/24 01:43:50;;;;;;;5.73;2.03;;;;;;;11.71;100.00;99662.09;5231300;28;20032;-75
2023/03/24 01:46:22;;;;;;;5.00;1.90;;;;;;;11.71;100.00;99669.94;5236380;28;20029;-73
2023/03/24 01:48:57;;;;;;;4.70;2.60;;;;;;;11.75;100.00;99658.22;5236331;28;20036;-73
2023/03/24 01:51:38;;;;;;;3.93;2.10;;;;;;;11.77;100.00;99658.94;5236873;28;20030;-74
2023/03/24 01:54:15;;;;;;;3.70;2.30;;;;;;;11.79;100.00;99656.19;5219671;28;20037;-75
2023/03/24 01:57:10;;;;;;;3.07;2.03;;;;;;;11.62;100.00;99624.34;5235474;28;20036;-73
2023/03/24 01:59:45;;;;;;;4.47;1.98;;;;;;;11.59;100.00;99635.91;5235615;28;20036;-73
2023/03/24 02:02:17;;;;;;;5.27;3.00;;;;;;;11.65;100.00;99652.09;5234281;28;20029;-74
2023/03/24 02:04:53;;;;;;;3.13;2.10;;;;;;;11.57;100.00;99627.34;5236436;28;20035;-74
2023/03/24 02:07:48;;;;;;;4.43;2.30;;;;;;;11.65;100.00;99644.22;5234299;28;20030;-74
2023/03/24 02:10:22;;;;;;;5.10;2.03;;;;;;;11.66;100.00;99633.59;5234978;28;20108;-74
2023/03/24 02:12:54;;;;;;;3.88;2.40;;;;;;;11.68;100.00;99618.56;5236136;28;20056;-74
2023/03/24 02:15:29;;;;;;;4.67;2.27;;;;;;;11.57;100.00;99611.59;5236202;28;20116;-74
2023/03/24 02:18:43;;;;;;;3.63;2.10;;;;;;;11.69;100.00;99640.38;5230439;28;20042;-74
2023/03/24 02:21:24;;;;;;;5.17;2.77;;;;;;;11.67;100.00;99639.69;5220573;28;20468;-75
2023/03/24 02:24:06;;;;;;;5.77;2.83;;;;;;;11.72;100.00;99642.75;5235785;28;20044;-74
2023/03/24 02:27:28;;;;;;;6.20;3.20;;;;;;;11.75;100.00;99639.84;5234585;28;20043;-73
2023/03/24 02:30:45;;;;;;;6.40;2.70;;;;;;;11.30;100.00;99580.66;5229264;28;20056;-73
2023/03/24 02:33:38;;;;;;;4.70;2.53;;;;;;;11.62;100.00;99640.88;5219013;28;20488;-74
2023/03/24 02:36:28;;;;;;;3.33;2.40;;;;;;;11.81;100.00;99641.97;5234784;28;20037;-74
2023/03/24 02:39:21;;;;;;;2.80;2.50;;;;;;;11.66;100.00;99640.66;5235061;28;20021;-73
2023/03/24 02:42:26;;;;;;;5.37;3.07;;;;;;;11.72;100.00;99632.25;5235436;28;20030;-73
2023/03/24 02:45:29;;;;;;;3.42;2.25;;;;;;;11.47;100.00;99603.69;5235004;28;20384;-74
2023/03/24 02:48:01;;;;;;;6.03;2.67;;;;;;;11.58;100.00;99644.75;5235433;28;20032;-73
2023/03/24 02:50:47;;;;;;;5.00;2.30;;;;;;;11.69;100.00;99651.72;5235552;28;20025;-73
2023/03/24 02:53:52;;;;;;;5.83;2.50;;;;;;;11.68;100.00;99662.31;5214794;28;20026;-74
2023/03/24 02:56:35;;;;;;;4.28;2.63;;;;;;;11.38;100.00;99615.78;5214135;28;20076;-74
2023/03/24 02:59:10;;;;;;;5.37;2.03;;;;;;;11.57;100.00;99652.75;5215182;28;20805;-74
2023/03/24 03:02:00;;;;;;;5.57;2.43;;;;;;;11.70;100.00;99684.84;5220118;28;20087;-74
2023/03/24 03:04:48;;;;;;;4.63;2.53;;;;;;;11.72;100.00;99698.66;5235273;28;20033;-73
2023/03/24 03:07:28;;;;;;;5.23;2.33;;;;;;;11.45;100.00;99681.63;5233569;28;20032;-74
2023/03/24 03:10:05;;;;;;;3.20;1.90;;;;;;;11.50;100.00;99694.38;5232865;28;20087;-73
2023/03/24 03:12:38;;;;;;;3.60;2.27;;;;;;;11.49;100.00;99695.31;5225673;28;20048;-74
2023/03/24 03:15:23;;;;;;;3.67;2.23;;;;;;;11.30;100.00;99668.00;5222038;28;20025;-73
2023/03/24 03:18:06;;;;;;;2.93;1.80;;;;;;;11.47;100.00;99715.59;5234712;28;20033;-74
2023/03/24 03:20:41;;;;;;;3.90;1.63;;;;;;;11.05;100.00;99664.75;5235003;28;20518;-74
2023/03/24 03:23:15;;;;;;;3.47;1.93;;;;;;;11.31;100.00;99743.03;5234833;28;20043;-74
2023/03/24 03:25:51;;;;;;;3.33;1.80;;;;;;;11.29;100.00;99742.34;5234927;28;20025;-74
2023/03/24 03:28:28;;;;;;;3.43;1.53;;;;;;;11.25;100.00;99733.06;5233742;28;20036;-74
2023/03/24 03:31:04;;;;;;;2.13;1.37;;;;;;;11.10;100.00;99740.38;5234601;28;20122;-74
2023/03/24 03:33:51;;;;;;;5.33;1.67;;;;;;;11.07;100.00;99762.41;5228991;28;20037;-74
2023/03/24 03:36:37;;;;;;;5.17;1.30;;;;;;;10.99;100.00;99781.38;5231851;28;20037;-74
2023/03/24 03:39:19;;;;;;;3.10;1.20;;;;;;;10.94;100.00;99788.75;5234375;28;20037;-74
2023/03/24 03:41:51;;;;;;;2.07;1.00;;;;;;;10.82;100.00;99790.53;5233445;28;20113;-74
2023/03/24 03:44:23;;;;;;;3.53;1.10;;;;;;;10.84;100.00;99798.28;5234242;28;20396;-74
2023/03/24 03:46:54;;;;;;;2.27;0.97;;;;;;;10.86;100.00;99807.69;5233479;28;20473;-74
2023/03/24 03:49:26;;;;;;;3.30;1.17;;;;;;;10.79;100.00;99811.72;5232763;28;20033;-75
2023/03/24 03:51:57;;;;;;;4.50;1.60;;;;;;;10.79;100.00;99814.34;5234334;28;20556;-74
2023/03/24 03:54:31;;;;;;;5.80;2.80;;;;;;;10.71;100.00;99816.72;5233817;28;20083;-74
2023/03/24 03:57:03;;;;;;;9.83;3.30;;;;;;;10.65;100.00;99818.88;5234232;28;20059;-73
2023/03/24 03:59:37;;;;;;;9.50;3.23;;;;;;;10.49;100.00;99821.81;5234575;28;20039;-74
2023/03/24 04:02:27;;;;;;;8.93;2.88;;;;;;;10.64;100.00;99839.94;5234205;28;20056;-74
2023/03/24 04:05:24;;;;;;;6.97;2.47;;;;;;;10.44;100.00;99834.41;5233451;28;20760;-74
2023/03/24 04:08:06;;;;;;;10.33;3.07;;;;;;;10.26;100.00;99839.25;5233863;28;20052;-74
2023/03/24 04:11:03;;;;;;;9.07;3.47;;;;;;;10.38;100.00;99855.81;5228345;28;20069;-74
2023/03/24 04:14:13;;;;;;;5.37;2.33;;;;;;;10.36;100.00;99863.78;5241928;28;20048;-73
2023/03/24 04:17:03;;;;;;;6.53;1.93;;;;;;;10.27;100.00;99867.06;5222154;28;20045;-73
2023/03/24 04:20:11;;;;;;;8.27;2.77;;;;;;;10.26;100.00;99881.13;5233512;28;20282;-73
2023/03/24 04:23:13;;;;;;;6.57;2.50;;;;;;;10.33;100.00;99889.34;5233377;28;20017;-73
2023/03/24 04:26:25;;;;;;;5.20;1.50;;;;;;;10.28;100.00;99885.28;5233032;28;20033;-73
2023/03/24 04:29:32;;;;;;;7.80;2.50;;;;;;;10.07;100.00;99879.84;5233745;28;20169;-73
2023/03/24 04:32:40;;;;;;;7.77;2.13;;;;;;;10.05;100.00;99877.34;5217926;28;20033;-73
2023/03/24 04:35:30;;;;;;;5.73;2.33;;;;;;;10.04;100.00;99898.38;5206598;28;20064;-73
2023/03/24 04:38:22;;;;;;;10.43;2.10;;;;;;;9.93;100.00;99894.75;5233217;28;20017;-75
2023/03/24 04:40:55;;;;;;;11.07;2.17;;;;;;;9.95;100.00;99907.72;5233829;28;20021;-73
2023/03/24 04:43:35;;;;;;;7.90;2.33;;;;;;;9.92;100.00;99915.81;5233322;28;20022;-74
2023/03/24 04:46:10;;;;;;;7.23;2.40;;;;;;;9.83;100.00;99912.06;5233512;28;20493;-74
2023/03/24 04:48:47;;;;;;;9.87;2.50;;;;;;;9.85;100.00;99918.03;5232422;28;20025;-75
2023/03/24 04:51:19;;;;;;;9.53;2.17;;;;;;;9.81;100.00;99919.19;5233292;28;20716;-73
2023/03/24 04:53:50;;;;;;;11.80;3.07;;;;;;;9.75;100.00;99927.47;5218325;28;20100;-74
2023/03/24 04:56:28;;;;;;;8.07;2.23;;;;;;;9.74;100.00;99916.16;5214080;28;20026;-74
2023/03/24 04:58:59;;;;;;;11.23;2.63;;;;;;;9.77;100.00;99925.59;5214187;28;20083;-74
2023/03/24 05:01:31;;;;;;;8.67;2.23;;;;;;;9.67;100.00;99925.38;5230721;28;20025;-74
2023/03/24 05:04:03;;;;;;;7.97;2.97;;;;;;;9.70;100.00;99919.13;5238693;28;20041;-74
2023/03/24 05:06:34;;;;;;;12.63;3.20;;;;;;;9.63;100.00;99924.81;5238126;28;20037;-74
2023/03/24 05:09:06;;;;;;;9.17;2.80;;;;;;;9.44;100.00;99899.94;5239652;28;20071;-74
2023/03/24 05:11:37;;;;;;;7.13;2.50;;;;;;;9.58;100.00;99921.69;5236148;28;20032;-75
2023/03/24 05:14:09;;;;;;;8.40;3.10;;;;;;;9.58;100.00;99939.13;5238622;28;20044;-74
2023/03/24 05:16:41;;;;;;;11.73;2.83;;;;;;;9.58;100.00;99955.66;5238308;28;20018;-74
2023/03/24 05:19:12;;;;;;;11.60;3.03;;;;;;;9.51;100.00;99946.56;5235487;28;20021;-74
2023/03/24 05:21:44;;;;;;;13.47;3.07;;;;;;;9.51;100.00;99943.97;5238582;28;20048;-74
2023/03/24 05:24:15;;;;;;;11.60;3.57;;;;;;;9.52;100.00;99958.69;5236973;28;20551;-74
2023/03/24 05:26:47;;;;;;;12.80;3.63;;;;;;;9.50;100.00;99969.25;5238030;28;20112;-75
2023/03/24 05:29:18;;;;;;;9.47;2.43;;;;;;;9.50;100.00;99968.41;5237608;28;20021;-75
2023/03/24 05:31:50;;;;;;;12.53;2.80;;;;;;;9.52;100.00;99956.91;5236821;28;20028;-75
2023/03/24 05:35:10;;;;;;;9.63;3.13;;;;;;;9.60;100.00;99979.91;5237243;28;20051;-75
2023/03/24 05:37:42;;;;;;;8.83;2.83;;;;;;;9.47;100.00;99969.47;5237322;28;20025;-75
2023/03/24 05:40:14;;;;;;;10.57;3.23;;;;;;;9.43;100.00;99955.78;5236545;28;20034;-75
2023/03/24 05:42:48;;;;;;;11.30;3.00;;;;;;;9.44;100.00;99961.84;5236723;28;20048;-75
2023/03/24 05:45:19;;;;;;;11.38;3.33;;;;;;;9.23;100.00;99944.09;5236160;28;20036;-75
2023/03/24 05:47:51;;;;;;;15.53;4.30;;;;;;;9.50;100.00;99986.69;5237178;28;20030;-75
2023/03/24 05:50:23;;;;;;;12.03;3.07;;;;;;;9.46;100.00;99985.25;5235878;28;20477;-75
2023/03/24 05:52:54;;;;;;;10.47;3.07;;;;;;;9.38;100.00;99986.63;5236336;28;20033;-75
2023/03/24 05:55:26;;;;;;;12.97;3.37;;;;;;;9.48;100.00;99996.47;5235855;28;20040;-75
2023/03/24 05:58:00;;;;;;;12.13;3.20;;;;;;;9.51;100.00;100001.47;5234731;28;20033;-75
2023/03/24 06:00:32;;;;;;;;;;;;;;;9.78;100.00;100001.31;5236357;28;20592;-75
2023/03/24 06:03:04;;;;;;;10.83;2.97;;;;;;;9.43;100.00;99983.69;5235585;28;19948;-75
2023/03/24 06:05:35;;;;;;;10.27;2.90;;;;;;;9.43;100.00;99988.91;5236105;28;20060;-75
2023/03/24 06:08:08;;;;;;;12.17;3.10;;;;;;;9.47;100.00;99992.16;5235640;28;20030;-74
2023/03/24 06:10:40;;;;;;;8.13;3.07;;;;;;;9.53;100.00;99996.97;5232117;28;20013;-74
2023/03/24 06:13:14;;;;;;;9.73;2.70;;;;;;;9.46;100.00;99990.50;5237353;28;20060;-74
2023/03/24 06:15:46;;;;;;;11.77;2.25;;;;;;;9.58;100.00;100002.72;5235613;28;20163;-74
2023/03/24 06:18:17;;;;;;;12.43;2.33;;;;;;;9.55;100.00;100005.53;5235789;28;20057;-75
2023/03/24 06:20:50;;;;;;;13.20;2.93;;;;;;;9.42;100.00;100003.78;5235147;28;20026;-74
2023/03/24 06:23:26;;;;;;;11.60;3.63;;;;;;;9.56;100.00;100008.03;5231955;28;20084;-74
2023/03/24 06:26:00;;;;;;;13.80;3.03;;;;;;;9.52;100.00;100003.13;5233328;28;20378;-73
2023/03/24 06:28:33;;;;;;;14.07;3.60;;;;;;;9.49;100.00;100019.03;5234673;28;20599;-75
2023/03/24 06:31:05;;;;;;;12.10;2.30;;;;;;;9.49;100.00;100022.47;5234816;28;20124;-74
2023/03/24 06:33:37;;;;;;;11.87;3.23;;;;;;;9.54;100.00;100025.63;5235361;28;20508;-74
2023/03/24 06:36:10;;;;;;;11.90;2.80;;;;;;;9.53;100.00;100034.38;5217130;28;20469;-74
2023/03/24 06:38:41;;;;;;;14.23;3.40;;;;;;;9.50;100.00;100038.97;5227309;28;21418;-73
2023/03/24 06:41:13;;;;;;;14.73;3.43;;;;;;;9.52;100.00;100037.09;5234696;28;20091;-75
2023/03/24 06:43:44;;;;;;;13.50;2.97;;;;;;;9.51;100.00;100040.66;5234849;28;20572;-74
2023/03/24 06:46:16;;;;;;;15.23;3.30;;;;;;;9.58;100.00;100041.09;5228563;28;20034;-74
2023/03/24 06:48:48;;;;;;;14.13;3.83;;;;;;;9.77;100.00;100032.81;5221096;28;20384;-74
2023/03/24 06:51:19;;;;;;;14.43;2.90;;;;;;;9.70;100.00;100036.78;5233397;28;20038;-74
2023/03/24 06:53:51;;;;;;;14.63;3.07;;;;;;;9.75;100.00;100038.16;5233908;28;20033;-74
2023/03/24 06:56:22;;;;;;;12.10;2.67;;;;;;;9.85;100.00;100045.34;5234537;28;20029;-73
2023/03/24 06:58:53;;;;;;;13.93;2.73;;;;;;;9.85;100.00;100040.94;5233911;28;20021;-74
2023/03/24 07:01:25;;;;;;;16.93;3.50;;;;;;;9.86;100.00;100034.75;5233449;28;20760;-75
2023/03/24 07:03:56;;;;;;;14.40;3.80;;;;;;;9.88;100.00;100038.09;5232009;28;20388;-75
2023/03/24 07:06:28;;;;;;;15.47;3.43;;;;;;;9.93;100.00;100029.97;5233272;28;20029;-73
2023/03/24 07:09:00;;;;;;;24.27;3.50;;;;;;;9.94;100.00;100039.47;5232508;28;20359;-74
2023/03/24 07:11:31;;;;;;;14.73;2.63;;;;;;;10.10;100.00;100036.63;5221064;28;20103;-74
2023/03/24 07:14:03;;;;;;;10.33;2.73;;;;;;;10.14;100.00;100045.09;5233933;28;20065;-73
2023/03/24 07:16:35;;;;;;;18.13;3.70;;;;;;;10.14;100.00;100038.03;5235370;28;20079;-74
2023/03/24 07:19:06;;;;;;;16.37;3.73;;;;;;;10.11;100.00;100048.75;5233994;28;20112;-73
2023/03/24 07:21:37;;;;;;;17.10;2.43;;;;;;;10.32;100.00;100049.91;5233954;28;20025;-74
2023/03/24 07:24:09;;;;;;;17.33;4.23;;;;;;;10.24;100.00;100059.19;5232685;28;20029;-74
2023/03/24 07:26:40;;;;;;;10.77;3.17;;;;;;;10.24;100.00;100037.41;5233725;28;20033;-75
2023/03/24 07:29:11;;;;;;;9.73;2.40;;;;;;;10.37;100.00;100055.66;5233382;28;20491;-75
2023/03/24 07:31:43;;;;;;;15.30;3.67;;;;;;;10.30;100.00;100050.03;5220132;28;20041;-75
2023/03/24 07:34:16;;;;;;;14.43;3.23;;;;;;;10.39;100.00;100057.25;5230994;28;20477;-74
2023/03/24 07:36:47;;;;;;;11.83;3.87;;;;;;;10.59;100.00;100073.34;5232326;28;20033;-75
2023/03/24 07:39:20;;;;;;;18.00;3.13;;;;;;;10.59;100.00;100081.19;5231367;28;20480;-75
2023/03/24 07:41:51;;;;;;;17.07;4.17;;;;;;;10.58;100.00;100065.56;5231547;28;20021;-75
2023/03/24 07:44:22;;;;;;;14.30;4.07;;;;;;;10.65;100.00;100078.09;5224528;28;20034;-74
2023/03/24 07:46:54;;;;;;;10.23;2.87;;;;;;;10.72;100.00;100078.50;5222312;28;20552;-75
2023/03/24 07:49:26;;;;;;;11.27;3.30;;;;;;;10.63;100.00;100084.38;5231561;28;20032;-75
2023/03/24 07:51:57;;;;;;;15.47;3.77;;;;;;;10.92;100.00;100083.22;5230699;28;20029;-75
2023/03/24 07:54:29;;;;;;;9.67;3.60;;;;;;;10.96;100.00;100085.50;5231150;28;20543;-75
2023/03/24 07:57:01;;;;;;;13.97;2.63;;;;;;;11.12;100.00;100093.06;5231149;28;20037;-75
2023/03/24 07:59:33;;;;;;;15.37;3.83;;;;;;;11.18;100.00;100093.56;5229919;28;20052;-75
2023/03/24 08:02:04;;;;;;;14.97;3.87;;;;;;;11.18;100.00;100088.31;5231486;28;20110;-75
2023/03/24 08:04:35;;;;;;;19.03;3.20;;;;;;;11.22;100.00;100102.88;5231322;28;20077;-75
2023/03/24 08:07:07;;;;;;;19.37;4.30;;;;;;;11.64;100.00;100093.66;5220367;28;20083;-73
2023/03/24 08:09:39;;;;;;;12.43;3.47;;;;;;;12.18;100.00;100102.63;5216624;28;20131;-75
2023/03/24 08:12:10;;;;;;;13.57;3.83;;;;;;;12.03;100.00;100099.38;5231073;28;20132;-73
2023/03/24 08:14:43;;;;;;;17.23;5.00;;;;;;;12.10;100.00;100100.63;5231100;28;20436;-74
2023/03/24 08:17:14;;;;;;;16.00;3.77;;;;;;;12.04;100.00;100106.31;5221009;28;20029;-74
2023/03/24 08:19:47;;;;;;;17.77;4.27;;;;;;;12.00;100.00;100107.50;5223441;28;20322;-72
2023/03/24 08:22:18;;;;;;;15.00;3.13;;;;;;;12.75;100.00;100117.44;5226169;28;20089;-74
2023/03/24 08:24:50;;;;;;;17.00;3.23;;;;;;;13.67;100.00;100117.00;5228078;28;20027;-75
2023/03/24 08:27:22;;;;;;;11.43;2.80;;;;;;;14.47;100.00;100113.69;5230407;28;20064;-74
2023/03/24 08:29:53;;;;;;;13.30;3.13;;;;;;;15.11;100.00;100109.91;5231070;28;20105;-74
2023/03/24 08:32:24;;;;;;;19.13;4.57;;;;;;;15.90;100.00;100112.34;5229104;28;20033;-74
2023/03/24 08:34:56;;;;;;;13.63;2.97;;;;;;;16.48;100.00;100109.59;5230484;28;20439;-76
2023/03/24 08:37:28;;;;;;;11.20;3.20;;;;;;;17.00;100.00;100109.91;5230651;28;20023;-75
2023/03/24 08:40:02;;;;;;;13.23;3.50;;;;;;;16.99;100.00;100116.16;5228771;28;20025;-74
2023/03/24 08:42:34;;;;;;;13.00;3.27;;;;;;;16.83;100.00;100132.72;5229544;28;20568;-74
2023/03/24 08:45:08;;;;;;;14.70;2.60;;;;;;;16.56;100.00;100137.91;5230944;28;20029;-74
2023/03/24 08:47:40;;;;;;;9.77;2.55;;;;;;;15.92;100.00;100130.69;5229340;28;20051;-74
2023/03/24 08:50:11;;;;;;;13.13;2.97;;;;;;;15.52;100.00;100132.59;5229725;28;20163;-74
2023/03/24 08:52:46;;;;;;;15.77;2.93;;;;;;;15.11;100.00;100123.09;5230319;28;20032;-74
2023/03/24 08:55:19;;;;;;;10.90;2.77;;;;;;;14.60;100.00;100144.25;5230121;28;20018;-74
2023/03/24 08:57:51;;;;;;;13.33;3.47;;;;;;;14.20;100.00;100146.78;5208113;28;20383;-74
2023/03/24 09:00:23;;;;;;;12.67;2.80;;;;;;;13.83;100.00;100148.13;5216916;28;20060;-74
2023/03/24 09:02:54;;;;;;;10.87;2.93;;;;;;;13.82;100.00;100132.47;5210985;28;20183;-74
2023/03/24 09:05:26;;;;;;;13.33;3.53;;;;;;;13.49;100.00;100148.31;5211915;28;20105;-73
2023/03/24 09:07:59;;;;;;;14.97;3.63;;;;;;;13.31;100.00;100141.84;5217853;28;20026;-73
2023/03/24 09:10:30;;;;;;;15.80;2.60;;;;;;;13.29;100.00;100143.75;5222076;28;20068;-74
2023/03/24 09:13:03;;;;;;;12.40;2.97;;;;;;;13.08;100.00;100146.34;5226408;28;20355;-74
2023/03/24 09:15:34;;;;;;;11.37;3.03;;;;;;;13.08;100.00;100143.72;5230568;28;20469;-73
2023/03/24 09:18:06;;;;;;;9.67;3.00;;;;;;;13.19;100.00;100142.84;5230820;28;20045;-73
2023/03/24 09:20:37;;;;;;;12.53;3.27;;;;;;;13.37;100.00;100144.94;5229781;28;20389;-73
2023/03/24 09:23:09;;;;;;;10.07;3.77;;;;;;;13.37;100.00;100158.88;5229360;28;20064;-74
2023/03/24 09:25:42;;;;;;;8.47;2.37;;;;;;;13.18;100.00;100162.19;5229801;28;20377;-74
2023/03/24 09:28:15;;;;;;;13.43;3.27;;;;;;;12.91;100.00;100151.22;5230557;28;20025;-73
2023/03/24 09:30:46;;;;;;;13.47;3.13;;;;;;;12.97;100.00;100167.44;5228210;28;20123;-74
2023/03/24 09:33:17;;;;;;;12.60;3.20;;;;;;;13.06;100.00;100171.94;5228686;28;20061;-74
2023/03/24 09:35:54;;;;;;;14.83;2.73;;;;;;;13.04;100.00;100176.47;5228956;28;20037;-74
2023/03/24 09:38:26;;;;;;;10.83;2.87;;;;;;;13.64;100.00;100146.22;5228119;28;20041;-74
2023/03/24 09:41:01;;;;;;;13.67;3.87;;;;;;;14.43;100.00;100172.91;5228374;28;20047;-73
2023/03/24 09:43:41;;;;;;;12.30;2.93;;;;;;;14.21;100.00;100172.13;5229016;28;20029;-74
2023/03/24 09:46:40;;;;;;;11.50;2.90;;;;;;;14.08;100.00;100182.91;5230620;28;20108;-73
2023/03/24 09:49:22;;;;;;;11.33;2.87;;;;;;;13.60;100.00;100176.38;5232232;28;20036;-74
2023/03/24 09:52:03;;;;;;;13.40;2.73;;;;;;;13.54;100.00;100177.75;5233836;28;20206;-73
2023/03/24 09:54:48;;;;;;;12.63;3.17;;;;;;;13.34;100.00;100181.97;5232622;28;20077;-73
2023/03/24 09:57:26;;;;;;;10.63;3.37;;;;;;;13.37;100.00;100176.47;5232784;28;20436;-73
2023/03/24 09:59:57;;;;;;;13.50;3.07;;;;;;;13.44;100.00;100172.34;5233225;28;20177;-73
2023/03/24 10:02:30;;;;;;;13.30;3.23;;;;;;;13.54;100.00;100173.28;5233093;28;20029;-74
2023/03/24 10:05:01;;;;;;;12.20;4.00;;;;;;;13.25;100.00;100173.03;5233778;28;20075;-73
2023/03/24 10:07:39;;;;;;;13.77;3.53;;;;;;;13.28;100.00;100178.88;5233315;28;20381;-74
2023/03/24 10:10:23;;;;;;;9.07;2.43;;;;;;;13.27;100.00;100177.22;5232861;28;20056;-74
2023/03/24 10:13:06;;;;;;;9.07;1.88;;;;;;;13.30;100.00;100182.22;5232006;28;20136;-74
2023/03/24 10:15:50;;;;;;;7.97;2.50;;;;;;;13.19;100.00;100184.91;5233786;28;20017;-73
2023/03/24 10:18:29;;;;;;;;;;;;;;;13.59;100.00;100190.50;5232917;28;20068;-74
2023/03/24 10:21:21;;;;;;;9.70;3.00;;;;;;;13.52;100.00;100205.97;5232662;28;20291;-74
2023/03/24 10:23:57;;;;;;;10.67;2.30;;;;;;;13.24;100.00;100190.63;5232953;28;20032;-73
2023/03/24 10:26:50;;;;;;;7.13;2.27;;;;;;;13.17;100.00;100195.56;5233409;28;20033;-74
2023/03/24 10:29:33;;;;;;;9.87;2.53;;;;;;;13.48;100.00;100183.47;5232858;28;20087;-74
2023/03/24 10:32:15;;;;;;;8.97;2.17;;;;;;;13.86;100.00;100186.53;5233110;28;20033;-74
2023/03/24 10:34:52;;;;;;;8.03;2.43;;;;;;;14.80;100.00;100184.63;5233021;28;20406;-75
2023/03/24 10:37:36;;;;;;;11.23;3.43;;;;;;;15.35;100.00;100171.94;5232900;28;20036;-74
2023/03/24 10:40:17;;;;;;;10.73;2.53;;;;;;;15.47;100.00;100181.38;5231015;28;20030;-74
2023/03/24 10:42:49;;;;;;;7.83;2.57;;;;;;;15.26;99.81;100178.03;5233079;28;20417;-73
2023/03/24 10:45:31;;;;;;;10.17;2.93;;;;;;;14.98;100.00;100181.38;5233717;28;20061;-74
2023/03/24 10:48:03;;;;;;;11.17;2.53;;;;;;;14.66;99.09;100190.31;5232201;28;20025;-74
2023/03/24 10:50:41;;;;;;;11.00;3.10;;;;;;;14.46;100.00;100184.97;5231808;28;20022;-74
2023/03/24 10:53:18;;;;;;;8.93;2.73;;;;;;;14.50;100.00;100175.84;5230667;28;20025;-73
2023/03/24 10:55:50;;;;;;;11.47;2.63;;;;;;;14.30;100.00;100177.56;5232848;28;20021;-73
2023/03/24 10:58:42;;;;;;;6.43;2.60;;;;;;;14.57;100.00;100181.41;5232332;28;20501;-73
2023/03/24 11:01:29;;;;;;;9.97;3.00;;;;;;;14.46;100.00;100182.34;5232357;28;20291;-74
2023/03/24 11:04:06;;;;;;;9.23;2.73;;;;;;;14.86;100.00;100175.38;5232494;28;20102;-74
2023/03/24 11:06:37;;;;;;;8.40;2.70;;;;;;;15.02;100.00;100184.56;5232540;28;20028;-74
2023/03/24 11:09:10;;;;;;;10.77;2.87;;;;;;;15.11;100.00;100183.75;5231943;28;20342;-74
2023/03/24 11:11:42;;;;;;;9.95;2.78;;;;;;;15.08;99.71;100179.56;5233010;28;20029;-74
2023/03/24 11:14:26;;;;;;;7.97;2.40;;;;;;;15.07;100.00;100179.72;5232194;28;20041;-74
2023/03/24 11:17:11;;;;;;;8.73;2.87;;;;;;;14.84;100.00;100180.78;5232847;28;20492;-74
2023/03/24 11:20:19;;;;;;;9.43;2.85;;;;;;;14.97;100.00;100188.47;5231680;28;20028;-73
2023/03/24 11:22:56;;;;;;;8.53;1.90;;;;;;;14.74;98.85;100180.75;5213843;28;20478;-74
2023/03/24 11:25:30;;;;;;;10.70;2.30;;;;;;;14.89;95.64;100177.75;5229822;28;20029;-75
2023/03/24 11:28:08;;;;;;;8.77;2.10;;;;;;;14.81;95.58;100174.97;5231595;28;20033;-74
2023/03/24 11:30:48;;;;;;;11.20;3.80;;;;;;;15.02;96.14;100176.66;5232890;28;20555;-75
2023/03/24 11:33:25;;;;;;;9.37;2.13;;;;;;;14.99;85.82;100183.03;5231769;28;20481;-74
2023/03/24 11:35:56;;;;;;;7.87;2.10;;;;;;;14.51;89.79;100152.00;5230404;28;20033;-73
2023/03/24 11:38:30;;;;;;;13.47;3.00;;;;;;;14.43;92.19;100180.81;5231150;28;20095;-73
2023/03/24 11:41:04;;;;;;;10.55;2.10;;;;;;;14.31;91.65;100188.00;5231555;28;20072;-73
2023/03/24 11:43:35;;;;;;;12.02;2.88;;;;;;;14.02;92.29;100191.31;5232253;28;20037;-73
2023/03/24 11:46:19;;;;;;;9.50;2.30;;;;;;;13.79;97.00;100191.44;5231968;28;20551;-75
2023/03/24 11:48:56;;;;;;;12.30;4.00;;;;;;;13.76;98.13;100207.50;5231887;28;20108;-75
2023/03/24 11:51:34;;;;;;;8.80;2.50;;;;;;;13.59;100.00;100222.06;5231438;28;20029;-75
2023/03/24 11:54:13;;;;;;;17.20;3.10;;;;;;;13.17;100.00;100255.19;5231150;28;20045;-74
2023/03/24 11:56:58;;;;;;;10.00;2.40;;;;;;;12.82;100.00;100236.88;5231205;28;20060;-75
2023/03/24 11:59:49;;;;;;;12.50;2.97;;;;;;;12.28;100.00;100246.31;5231646;28;20055;-74
2023/03/24 12:02:40;;;;;;;6.80;2.57;;;;;;;12.27;100.00;100250.72;5231179;28;20022;-74
2023/03/24 12:05:41;;;;;;;11.93;2.60;;;;;;;12.26;100.00;100259.56;5231011;28;20049;-75